Time;durP1;ratioP1;P1;durP2;ratioP2;P2;SDS_P1;SDS_P2;PMS_P1;PMS_P2;Temp;Humidity;BMP_temperature;BMP_pressure;BME280_temperature;BME280_humidity;BME280_pressure;Samples;Min_cycle;Max_cycle;Signal;HPM_P1;HPM_P2
2022/10/12 05:00:42;;;;;;;24.50;21.40;;;15.10;97.20;;;;;;1701459;29;20199;-78
2022/10/12 05:01:33;;;;;;;26.10;22.05;;;15.10;97.20;;;;;;1701194;29;20207;-78
2022/10/12 05:02:25;;;;;;;24.90;21.23;;;15.10;97.20;;;;;;1700911;29;20209;-77
2022/10/12 05:03:16;;;;;;;25.83;21.27;;;15.10;97.20;;;;;;1701178;29;20443;-77
2022/10/12 05:04:08;;;;;;;29.23;22.03;;;15.10;97.20;;;;;;1703650;28;20199;-77
2022/10/12 05:04:58;;;;;;;23.00;20.60;;;15.10;97.20;;;;;;1704672;28;20470;-77
2022/10/12 05:05:50;;;;;;;29.23;21.27;;;15.10;97.20;;;;;;1703752;29;20194;-77
2022/10/12 05:06:41;;;;;;;24.45;21.85;;;15.10;97.20;;;;;;1704296;29;20854;-77
2022/10/12 05:07:33;;;;;;;27.07;21.30;;;15.10;97.20;;;;;;1704726;29;20736;-77
2022/10/12 05:08:24;;;;;;;23.13;19.30;;;15.10;97.20;;;;;;1703594;29;20195;-77
2022/10/12 05:09:16;;;;;;;26.65;20.52;;;15.10;97.20;;;;;;1703603;29;20202;-77
2022/10/12 05:10:08;;;;;;;27.50;20.75;;;15.10;97.20;;;;;;1704857;28;20199;-77
2022/10/12 05:10:59;;;;;;;23.80;20.05;;;15.10;97.20;;;;;;1705628;28;20210;-77
2022/10/12 05:11:50;;;;;;;26.20;20.25;;;15.10;97.20;;;;;;1702356;29;20199;-78
2022/10/12 05:12:42;;;;;;;25.00;19.80;;;15.10;97.20;;;;;;1702039;29;20207;-77
2022/10/12 05:13:33;;;;;;;23.08;20.17;;;15.10;97.20;;;;;;1702084;29;20211;-77
2022/10/12 05:14:24;;;;;;;22.90;20.43;;;15.10;97.20;;;;;;1702171;29;20215;-77
2022/10/12 05:15:16;;;;;;;25.50;21.60;;;15.10;97.20;;;;;;1702307;29;20214;-78
2022/10/12 05:16:09;;;;;;;27.38;21.05;;;15.10;97.20;;;;;;1701919;29;20213;-78
2022/10/12 05:16:59;;;;;;;24.75;20.13;;;15.10;97.20;;;;;;1701940;29;20214;-78
2022/10/12 05:17:51;;;;;;;22.60;20.27;;;15.10;97.20;;;;;;1702029;29;20205;-78
2022/10/12 05:18:42;;;;;;;25.60;20.00;;;15.10;97.20;;;;;;1701955;29;20588;-78
2022/10/12 05:19:33;;;;;;;24.17;21.60;;;15.20;97.20;;;;;;1702008;29;20593;-78
2022/10/12 05:20:25;;;;;;;23.38;20.80;;;15.20;97.20;;;;;;1701826;29;20676;-78
2022/10/12 05:21:17;;;;;;;22.40;19.92;;;15.20;97.20;;;;;;1702043;29;20563;-77
2022/10/12 05:22:07;;;;;;;24.08;20.73;;;15.20;97.20;;;;;;1702091;29;20214;-77
2022/10/12 05:22:59;;;;;;;23.47;20.97;;;15.20;97.20;;;;;;1701875;29;20234;-78
2022/10/12 05:23:50;;;;;;;22.50;20.00;;;15.20;97.20;;;;;;1704211;29;20207;-78
2022/10/12 05:24:42;;;;;;;24.20;20.20;;;15.20;97.20;;;;;;1706134;29;20205;-79
2022/10/12 05:25:34;;;;;;;26.35;21.05;;;15.20;97.20;;;;;;1704550;29;20447;-78
2022/10/12 05:26:25;;;;;;;23.30;20.50;;;15.20;97.20;;;;;;1703401;29;20242;-78
2022/10/12 05:27:16;;;;;;;23.35;19.90;;;15.20;97.20;;;;;;1704693;29;20210;-78
2022/10/12 05:28:08;;;;;;;23.17;20.80;;;15.20;97.20;;;;;;1703530;29;20203;-78
2022/10/12 05:28:59;;;;;;;22.60;20.20;;;15.20;97.20;;;;;;1704047;29;20207;-78
2022/10/12 05:29:50;;;;;;;22.53;20.00;;;15.20;97.20;;;;;;1703087;29;20203;-78
2022/10/12 05:30:41;;;;;;;23.13;20.77;;;15.10;97.20;;;;;;1703551;29;20238;-78
2022/10/12 05:31:34;;;;;;;22.73;20.43;;;15.10;97.20;;;;;;1704976;29;20203;-78
2022/10/12 05:32:25;;;;;;;23.95;21.45;;;15.20;97.20;;;;;;1701974;29;20684;-76
2022/10/12 05:33:17;;;;;;;26.20;21.47;;;15.20;97.20;;;;;;1701737;29;20740;-77
2022/10/12 05:34:08;;;;;;;23.90;20.92;;;15.10;97.20;;;;;;1703695;29;20203;-77
2022/10/12 05:34:59;;;;;;;25.13;22.67;;;15.10;97.20;;;;;;1703790;29;20210;-77
2022/10/12 05:35:50;;;;;;;22.95;20.48;;;15.20;97.20;;;;;;1701751;29;20501;-77
2022/10/12 05:36:42;;;;;;;24.03;21.70;;;15.10;97.20;;;;;;1701972;29;20207;-77
2022/10/12 05:37:33;;;;;;;25.83;23.13;;;15.20;97.20;;;;;;1702058;29;20226;-77
2022/10/12 05:38:24;;;;;;;24.03;21.63;;;15.10;97.20;;;;;;1702059;29;20203;-77
2022/10/12 05:39:15;;;;;;;26.00;23.15;;;15.10;97.20;;;;;;1701864;29;20207;-77
2022/10/12 05:40:07;;;;;;;28.40;25.50;;;15.10;97.20;;;;;;1701557;29;20199;-76
2022/10/12 05:40:58;;;;;;;27.52;24.67;;;15.10;97.20;;;;;;1701708;29;20238;-77
2022/10/12 05:41:50;;;;;;;27.97;25.03;;;15.10;97.20;;;;;;1705769;29;20209;-77
2022/10/12 05:42:41;;;;;;;27.38;24.48;;;15.10;97.20;;;;;;1708035;29;20202;-77
2022/10/12 05:43:32;;;;;;;28.03;25.20;;;15.10;97.20;;;;;;1708644;29;20723;-83
2022/10/12 05:44:23;;;;;;;26.35;23.67;;;15.10;97.20;;;;;;1708474;29;20207;-72
2022/10/12 05:45:16;;;;;;;26.50;23.90;;;15.10;97.20;;;;;;1708118;29;20278;-77
2022/10/12 05:46:06;;;;;;;28.27;25.25;;;15.10;97.20;;;;;;1708296;29;20213;-78
2022/10/12 05:46:59;;;;;;;29.40;25.50;;;15.10;97.20;;;;;;1707978;28;20204;-77
2022/10/12 05:47:50;;;;;;;27.63;24.92;;;15.10;97.20;;;;;;1708252;29;20219;-78
2022/10/12 05:48:42;;;;;;;34.07;30.60;;;15.10;97.20;;;;;;1708324;29;20346;-78
2022/10/12 05:49:33;;;;;;;32.88;29.63;;;15.10;97.20;;;;;;1701755;29;20214;-78
2022/10/12 05:50:24;;;;;;;31.90;28.73;;;15.10;97.20;;;;;;1701498;29;20213;-78
2022/10/12 05:51:15;;;;;;;30.17;27.02;;;15.10;97.20;;;;;;1701757;29;20203;-78
2022/10/12 05:52:07;;;;;;;29.67;26.67;;;15.10;97.20;;;;;;1701965;29;20203;-78
2022/10/12 05:52:58;;;;;;;30.20;27.13;;;15.10;97.20;;;;;;1702938;29;20207;-79
2022/10/12 05:53:49;;;;;;;31.07;28.07;;;15.10;97.20;;;;;;1701965;29;20202;-78
2022/10/12 05:54:40;;;;;;;29.83;26.77;;;15.10;97.20;;;;;;1705416;29;20454;-78
2022/10/12 05:55:32;;;;;;;31.63;28.47;;;15.10;97.20;;;;;;1709656;28;20206;-78
2022/10/12 05:56:22;;;;;;;29.75;26.80;;;15.10;97.20;;;;;;1709412;29;20619;-78
2022/10/12 05:57:14;;;;;;;30.10;26.87;;;15.10;97.20;;;;;;1708559;28;20202;-77
2022/10/12 05:58:05;;;;;;;29.38;26.48;;;15.10;97.20;;;;;;1708257;29;20730;-77
2022/10/12 05:58:57;;;;;;;27.90;25.20;;;15.10;97.20;;;;;;1706458;28;20568;-77
2022/10/12 05:59:47;;;;;;;28.00;25.25;;;15.10;97.20;;;;;;1701038;29;20209;-77
2022/10/12 06:00:39;;;;;;;26.87;24.03;;;15.10;97.20;;;;;;1701488;29;20223;-77
2022/10/12 06:01:30;;;;;;;28.40;25.50;;;15.10;97.20;;;;;;1701550;29;20210;-76
2022/10/12 06:02:23;;;;;;;28.00;25.20;;;15.10;97.20;;;;;;1701785;29;20209;-77
2022/10/12 06:03:13;;;;;;;26.38;23.63;;;15.10;97.20;;;;;;1701580;29;20231;-78
2022/10/12 06:04:05;;;;;;;24.70;22.30;;;15.10;97.20;;;;;;1701740;29;20203;-78
2022/10/12 06:04:56;;;;;;;26.42;23.88;;;15.10;97.20;;;;;;1701623;29;20665;-77
2022/10/12 06:05:48;;;;;;;25.60;23.00;;;15.10;97.20;;;;;;1701576;29;20640;-77
2022/10/12 06:06:39;;;;;;;27.50;23.73;;;15.10;97.20;;;;;;1701398;29;20442;-77
2022/10/12 06:07:30;;;;;;;27.53;24.73;;;15.10;97.20;;;;;;1701473;29;20199;-77
2022/10/12 06:08:21;;;;;;;27.27;24.55;;;15.10;97.20;;;;;;1701699;29;20536;-77
2022/10/12 06:09:13;;;;;;;27.63;24.93;;;15.10;97.20;;;;;;1701529;29;20211;-77
2022/10/12 06:10:05;;;;;;;26.00;23.27;;;15.10;97.20;;;;;;1701149;29;20222;-77
2022/10/12 06:10:57;;;;;;;26.52;23.85;;;15.10;97.20;;;;;;1701495;29;20227;-77
2022/10/12 06:11:49;;;;;;;26.08;23.30;;;15.10;97.20;;;;;;1708009;29;20206;-77
2022/10/12 06:12:42;;;;;;;27.83;24.90;;;15.10;97.20;;;;;;1708195;29;20234;-77
2022/10/12 06:13:32;;;;;;;26.38;23.77;;;15.10;97.20;;;;;;1708120;28;20670;-77
2022/10/12 06:14:24;;;;;;;26.87;24.30;;;15.10;97.20;;;;;;1708051;29;20798;-77
2022/10/12 06:15:15;;;;;;;28.30;24.25;;;15.10;97.20;;;;;;1708151;29;20277;-77
2022/10/12 06:16:07;;;;;;;25.50;23.00;;;15.10;97.20;;;;;;1708551;29;20273;-78
2022/10/12 06:16:58;;;;;;;26.90;24.20;;;15.10;97.20;;;;;;1708561;28;20465;-78
2022/10/12 06:17:54;;;;;;;25.70;23.20;;;15.10;97.20;;;;;;1708888;29;20233;-77
2022/10/12 06:18:44;;;;;;;25.92;23.23;;;15.10;97.20;;;;;;1708070;29;20234;-77
2022/10/12 06:19:36;;;;;;;25.57;22.87;;;15.10;97.20;;;;;;1707679;29;20297;-77
2022/10/12 06:20:27;;;;;;;25.80;22.52;;;15.10;97.20;;;;;;1708581;29;20210;-77
2022/10/12 06:21:19;;;;;;;26.47;23.77;;;15.10;97.20;;;;;;1708834;28;20202;-77
2022/10/12 06:22:10;;;;;;;26.33;23.63;;;15.10;97.20;;;;;;1708956;28;20834;-77
2022/10/12 06:23:01;;;;;;;24.83;22.37;;;15.10;97.20;;;;;;1708737;29;20203;-77
2022/10/12 06:23:53;;;;;;;24.48;21.98;;;15.10;97.20;;;;;;1708412;29;20582;-77
2022/10/12 06:24:44;;;;;;;24.48;22.00;;;15.20;97.20;;;;;;1709225;28;20202;-77
2022/10/12 06:25:35;;;;;;;24.95;22.55;;;15.20;97.20;;;;;;1708384;29;20210;-77
2022/10/12 06:26:27;;;;;;;26.60;23.90;;;15.20;97.20;;;;;;1708125;29;20203;-77
2022/10/12 06:27:19;;;;;;;25.80;23.30;;;15.20;97.20;;;;;;1709284;29;20210;-77
2022/10/12 06:28:10;;;;;;;27.38;24.58;;;15.20;97.20;;;;;;1709241;29;20203;-78
2022/10/12 06:29:01;;;;;;;24.15;21.60;;;15.20;97.20;;;;;;1708395;29;20206;-77
2022/10/12 06:29:53;;;;;;;26.00;23.50;;;15.20;97.20;;;;;;1707846;29;20202;-77
2022/10/12 06:30:44;;;;;;;25.42;22.83;;;15.20;97.20;;;;;;1707645;29;20226;-76
2022/10/12 06:31:37;;;;;;;24.48;22.08;;;15.20;97.20;;;;;;1707821;28;20198;-76
2022/10/12 06:32:27;;;;;;;25.75;23.00;;;15.20;97.20;;;;;;1703768;29;20273;-76
2022/10/12 06:33:20;;;;;;;26.17;23.40;;;15.20;97.20;;;;;;1702313;29;20195;-75
2022/10/12 06:34:11;;;;;;;25.80;23.05;;;15.20;97.20;;;;;;1700872;29;20207;-76
2022/10/12 06:35:03;;;;;;;25.10;22.10;;;15.20;97.20;;;;;;1704037;29;20217;-76
2022/10/12 06:35:54;;;;;;;26.17;23.38;;;15.20;97.20;;;;;;1708053;29;20680;-76
2022/10/12 06:36:46;;;;;;;25.23;22.70;;;15.20;97.20;;;;;;1707689;29;20199;-76
2022/10/12 06:37:37;;;;;;;25.75;23.05;;;15.20;97.20;;;;;;1706151;29;20202;-77
2022/10/12 06:38:28;;;;;;;26.03;23.53;;;15.20;97.20;;;;;;1701249;29;20285;-77
2022/10/12 06:39:20;;;;;;;27.42;24.63;;;15.20;97.20;;;;;;1701064;29;20234;-77
2022/10/12 06:40:12;;;;;;;27.73;24.92;;;15.20;97.20;;;;;;1700491;29;20697;-77
2022/10/12 06:41:03;;;;;;;26.52;23.73;;;15.20;97.20;;;;;;1701040;29;20199;-77
2022/10/12 06:41:55;;;;;;;27.07;24.37;;;15.20;97.20;;;;;;1701149;29;20210;-78
2022/10/12 06:42:47;;;;;;;27.85;25.05;;;15.20;97.20;;;;;;1701119;29;20458;-77
2022/10/12 06:43:39;;;;;;;25.65;23.13;;;15.20;97.20;;;;;;1701092;29;20227;-78
2022/10/12 06:44:31;;;;;;;26.23;23.77;;;15.20;97.20;;;;;;1701165;29;20243;-77
2022/10/12 06:45:23;;;;;;;26.83;24.10;;;15.20;97.20;;;;;;1700910;29;20254;-77
2022/10/12 06:46:14;;;;;;;26.58;23.88;;;15.20;97.20;;;;;;1700972;29;20204;-77
2022/10/12 06:47:05;;;;;;;27.00;24.23;;;15.20;97.20;;;;;;1700986;29;20675;-77
2022/10/12 06:47:57;;;;;;;26.90;24.20;;;15.20;97.20;;;;;;1703418;29;20208;-76
2022/10/12 06:48:50;;;;;;;27.45;24.55;;;15.20;97.20;;;;;;1705664;29;20195;-76
2022/10/12 06:49:40;;;;;;;28.20;25.40;;;15.20;97.20;;;;;;1700533;29;20210;-77
2022/10/12 06:50:32;;;;;;;26.83;24.27;;;15.20;97.20;;;;;;1700796;29;20227;-77
2022/10/12 06:51:23;;;;;;;25.90;23.20;;;15.20;97.20;;;;;;1700923;29;20608;-77
2022/10/12 06:52:15;;;;;;;27.87;24.87;;;15.20;97.20;;;;;;1700924;29;20587;-77
2022/10/12 06:53:05;;;;;;;26.38;23.98;;;15.20;97.20;;;;;;1700942;29;20566;-77
2022/10/12 06:53:57;;;;;;;27.17;24.57;;;15.20;97.20;;;;;;1701179;29;20221;-77
2022/10/12 06:54:48;;;;;;;27.42;24.58;;;15.20;97.20;;;;;;1701669;29;20207;-76
2022/10/12 06:55:40;;;;;;;28.00;25.03;;;15.20;97.20;;;;;;1703798;29;20198;-77
2022/10/12 06:56:30;;;;;;;27.40;24.60;;;15.20;97.20;;;;;;1707589;29;20268;-76
2022/10/12 06:57:22;;;;;;;27.40;24.33;;;15.20;97.20;;;;;;1701357;28;20218;-76
2022/10/12 06:58:13;;;;;;;26.77;24.17;;;15.20;97.20;;;;;;1700865;29;20211;-76
2022/10/12 06:59:05;;;;;;;26.57;23.60;;;15.20;97.20;;;;;;1700643;29;20209;-76
2022/10/12 06:59:55;;;;;;;26.85;24.15;;;15.20;97.20;;;;;;1700555;29;20210;-76
2022/10/12 07:00:47;;;;;;;26.30;23.50;;;15.20;97.20;;;;;;1706434;29;20214;-77
2022/10/12 07:01:38;;;;;;;25.77;23.23;;;15.20;97.20;;;;;;1707620;29;20203;-77
2022/10/12 07:02:30;;;;;;;24.30;21.97;;;15.30;97.20;;;;;;1707274;29;20196;-77
2022/10/12 07:03:20;;;;;;;25.33;22.83;;;15.30;97.20;;;;;;1702427;29;20199;-77
2022/10/12 07:04:13;;;;;;;25.50;22.80;;;15.30;97.20;;;;;;1700666;29;20203;-77
2022/10/12 07:05:06;;;;;;;24.77;22.38;;;15.30;97.20;;;;;;1700940;29;20203;-76
2022/10/12 07:06:06;;;;;;;25.25;22.15;;;15.30;97.20;;;;;;1701368;29;20210;-76
2022/10/12 07:06:56;;;;;;;25.30;22.88;;;15.30;97.20;;;;;;1701258;29;20293;-76
2022/10/12 07:07:48;;;;;;;26.73;24.03;;;15.30;97.20;;;;;;1702411;29;20199;-76
2022/10/12 07:08:40;;;;;;;25.15;22.73;;;15.30;97.20;;;;;;1704620;29;20691;-76
2022/10/12 07:09:31;;;;;;;26.13;23.42;;;15.30;97.20;;;;;;1707520;29;20574;-76
2022/10/12 07:10:23;;;;;;;25.88;23.35;;;15.30;97.20;;;;;;1707629;29;20207;-76
2022/10/12 07:11:15;;;;;;;26.63;24.00;;;15.30;97.20;;;;;;1707591;29;20205;-76
2022/10/12 07:12:06;;;;;;;26.23;23.60;;;15.30;97.20;;;;;;1707796;29;20210;-76
2022/10/12 07:12:58;;;;;;;26.17;23.37;;;15.30;97.20;;;;;;1705171;29;20209;-76
2022/10/12 07:13:50;;;;;;;28.10;25.13;;;15.40;97.20;;;;;;1701265;29;20442;-76
2022/10/12 07:14:41;;;;;;;26.02;23.02;;;15.40;97.20;;;;;;1701391;29;20199;-76
2022/10/12 07:15:32;;;;;;;26.55;23.73;;;15.40;97.20;;;;;;1701217;29;20203;-76
2022/10/12 07:16:24;;;;;;;25.80;23.20;;;15.40;97.20;;;;;;1701271;29;20209;-76
2022/10/12 07:17:14;;;;;;;25.77;23.25;;;15.40;97.20;;;;;;1704070;29;20734;-76
2022/10/12 07:18:06;;;;;;;26.00;23.37;;;15.40;97.20;;;;;;1707766;29;20748;-76
2022/10/12 07:18:57;;;;;;;24.15;21.80;;;15.40;97.20;;;;;;1706723;29;20699;-76
2022/10/12 07:19:50;;;;;;;27.00;24.10;;;15.40;97.20;;;;;;1707004;29;20645;-76
2022/10/12 07:20:41;;;;;;;26.33;23.50;;;15.40;97.20;;;;;;1707710;29;20716;-76
2022/10/12 07:21:32;;;;;;;26.43;23.83;;;15.40;97.20;;;;;;1707835;29;20597;-76
2022/10/12 07:22:23;;;;;;;26.23;23.67;;;15.40;97.20;;;;;;1707152;29;20199;-76
2022/10/12 07:23:15;;;;;;;26.63;23.20;;;15.40;97.20;;;;;;1707786;28;20210;-76
2022/10/12 07:24:06;;;;;;;26.65;22.60;;;15.40;97.20;;;;;;1707638;29;20244;-76
2022/10/12 07:24:57;;;;;;;24.98;22.42;;;15.40;97.20;;;;;;1707865;29;20577;-76
2022/10/12 07:25:48;;;;;;;25.85;23.10;;;15.40;97.20;;;;;;1707814;29;20209;-76
2022/10/12 07:26:40;;;;;;;27.63;24.83;;;15.40;97.20;;;;;;1705192;29;20209;-76
2022/10/12 07:27:31;;;;;;;26.13;23.63;;;15.40;97.20;;;;;;1701124;29;20443;-76
2022/10/12 07:28:23;;;;;;;25.40;22.80;;;15.40;97.20;;;;;;1704798;29;20253;-76
2022/10/12 07:29:14;;;;;;;25.35;22.85;;;15.40;97.20;;;;;;1707763;29;20213;-76
2022/10/12 07:30:06;;;;;;;28.45;23.55;;;15.40;97.20;;;;;;1707373;29;20206;-76
2022/10/12 07:31:02;;;;;;;24.65;21.70;;;15.40;97.20;;;;;;1707635;28;20301;-76
2022/10/12 07:31:53;;;;;;;30.50;25.35;;;15.40;97.20;;;;;;1707795;28;20207;-76
2022/10/12 07:32:45;;;;;;;29.23;26.10;;;15.40;97.20;;;;;;1707450;28;20203;-76
2022/10/12 07:33:37;;;;;;;28.35;24.15;;;15.40;97.20;;;;;;1702914;28;20329;-76
2022/10/12 07:34:29;;;;;;;26.83;23.92;;;15.40;97.20;;;;;;1701186;29;20621;-76
2022/10/12 07:35:22;;;;;;;29.02;24.80;;;15.40;97.20;;;;;;1701200;29;20221;-76
2022/10/12 07:36:14;;;;;;;30.23;26.15;;;15.40;97.20;;;;;;1701095;29;20211;-76
2022/10/12 07:37:06;;;;;;;28.77;25.70;;;15.40;97.20;;;;;;1701057;29;20215;-76
2022/10/12 07:37:56;;;;;;;27.50;24.17;;;15.40;97.20;;;;;;1701029;29;20240;-76
2022/10/12 07:38:48;;;;;;;23.90;21.30;;;15.40;97.20;;;;;;1701090;29;20203;-76
2022/10/12 07:39:40;;;;;;;26.80;23.90;;;15.40;97.20;;;;;;1700988;29;20207;-77
2022/10/12 07:40:32;;;;;;;26.77;23.42;;;15.40;97.20;;;;;;1707546;29;20203;-76
2022/10/12 07:41:23;;;;;;;25.88;23.10;;;15.40;97.20;;;;;;1707387;29;20199;-76
2022/10/12 07:42:15;;;;;;;30.23;23.07;;;15.40;97.20;;;;;;1707691;29;20202;-76
2022/10/12 07:43:05;;;;;;;27.33;24.42;;;15.40;97.20;;;;;;1707239;29;20230;-76
2022/10/12 07:43:57;;;;;;;28.80;25.10;;;15.40;97.20;;;;;;1707744;28;20226;-76
2022/10/12 07:44:48;;;;;;;28.40;25.40;;;15.40;97.20;;;;;;1707641;29;20202;-76
2022/10/12 07:45:40;;;;;;;26.43;23.50;;;15.40;97.20;;;;;;1703495;29;20196;-76
2022/10/12 07:46:30;;;;;;;25.40;22.65;;;15.40;97.20;;;;;;1701209;29;20203;-76
2022/10/12 07:47:22;;;;;;;29.93;25.20;;;15.40;97.20;;;;;;1700938;29;20217;-76
2022/10/12 07:48:13;;;;;;;26.70;23.05;;;15.40;97.20;;;;;;1701078;29;20214;-76
2022/10/12 07:49:05;;;;;;;27.60;22.90;;;15.40;97.20;;;;;;1701121;29;20214;-76
2022/10/12 07:49:55;;;;;;;24.73;21.92;;;15.40;97.20;;;;;;1700698;29;20214;-76
2022/10/12 07:50:49;;;;;;;25.13;22.43;;;15.40;97.20;;;;;;1700985;29;20219;-76
2022/10/12 07:51:40;;;;;;;26.73;23.25;;;15.40;97.20;;;;;;1701022;29;20688;-76
2022/10/12 07:52:33;;;;;;;24.63;22.02;;;15.40;97.20;;;;;;1700919;29;20661;-76
2022/10/12 07:53:23;;;;;;;29.13;25.10;;;15.40;97.20;;;;;;1701040;29;20207;-76
2022/10/12 07:54:15;;;;;;;31.27;25.77;;;15.40;97.20;;;;;;1700995;29;20668;-76
2022/10/12 07:55:07;;;;;;;34.90;26.40;;;15.40;97.20;;;;;;1700981;29;20234;-76
2022/10/12 07:56:00;;;;;;;27.30;23.58;;;15.40;97.20;;;;;;1700965;29;20316;-76
2022/10/12 07:56:51;;;;;;;26.45;23.58;;;15.40;97.20;;;;;;1703778;29;20226;-76
2022/10/12 07:57:43;;;;;;;32.50;26.07;;;15.40;97.20;;;;;;1707724;29;20259;-76
2022/10/12 07:58:34;;;;;;;33.47;26.02;;;15.40;97.20;;;;;;1702397;28;20199;-76
2022/10/12 07:59:26;;;;;;;28.13;24.80;;;15.50;97.20;;;;;;1701049;29;20206;-76
2022/10/12 08:00:19;;;;;;;29.00;24.63;;;15.50;97.20;;;;;;1700603;29;20678;-76
2022/10/12 08:01:11;;;;;;;27.42;24.55;;;15.50;97.20;;;;;;1701046;29;20712;-77
2022/10/12 08:02:02;;;;;;;28.42;22.77;;;15.50;97.20;;;;;;1701397;29;20214;-77
2022/10/12 08:02:53;;;;;;;26.07;23.00;;;15.50;97.20;;;;;;1701085;29;20199;-77
2022/10/12 08:03:44;;;;;;;26.83;23.52;;;15.50;97.20;;;;;;1700844;29;20241;-76
2022/10/12 08:04:36;;;;;;;26.70;23.43;;;15.50;97.20;;;;;;1700932;29;20217;-76
2022/10/12 08:05:27;;;;;;;32.58;22.88;;;15.50;97.20;;;;;;1702000;29;20206;-76
2022/10/12 08:06:22;;;;;;;28.77;24.30;;;15.50;97.20;;;;;;1705108;29;20198;-76
2022/10/12 08:07:13;;;;;;;30.92;24.52;;;15.50;97.20;;;;;;1707163;29;20218;-76
2022/10/12 08:08:07;;;;;;;27.50;23.43;;;15.50;97.20;;;;;;1707647;29;20213;-76
2022/10/12 08:08:58;;;;;;;30.20;25.20;;;15.50;97.20;;;;;;1707662;29;20218;-75
2022/10/12 08:09:50;;;;;;;28.17;23.77;;;15.50;97.20;;;;;;1706898;29;20727;-76
2022/10/12 08:10:41;;;;;;;26.30;23.45;;;15.50;97.20;;;;;;1707412;29;20234;-76
2022/10/12 08:11:37;;;;;;;30.37;24.80;;;15.50;97.20;;;;;;1705116;29;20213;-76
2022/10/12 08:12:28;;;;;;;27.55;23.58;;;15.50;97.20;;;;;;1701023;29;20218;-78
2022/10/12 08:13:19;;;;;;;32.17;27.40;;;15.50;97.20;;;;;;1700933;29;20203;-77
2022/10/12 08:14:12;;;;;;;27.23;24.30;;;15.50;97.20;;;;;;1707102;29;20678;-76
2022/10/12 08:15:04;;;;;;;30.42;25.08;;;15.50;97.20;;;;;;1707505;29;20567;-76
2022/10/12 08:15:55;;;;;;;30.08;23.52;;;15.50;97.20;;;;;;1702976;28;20242;-76
2022/10/12 08:16:47;;;;;;;32.60;24.97;;;15.50;97.20;;;;;;1700834;29;20203;-76
2022/10/12 08:17:38;;;;;;;30.10;25.02;;;15.50;97.20;;;;;;1702551;29;20207;-76
2022/10/12 08:18:29;;;;;;;28.27;25.27;;;15.60;97.20;;;;;;1707472;29;20202;-76
2022/10/12 08:19:20;;;;;;;27.55;24.30;;;15.60;97.20;;;;;;1707588;29;20209;-76
2022/10/12 08:20:12;;;;;;;27.27;23.70;;;15.60;97.20;;;;;;1706854;29;20194;-76
2022/10/12 08:21:03;;;;;;;27.25;24.52;;;15.60;97.20;;;;;;1707502;29;20561;-76
2022/10/12 08:21:56;;;;;;;31.02;22.45;;;15.60;97.20;;;;;;1707211;29;20261;-76
2022/10/12 08:22:47;;;;;;;24.52;21.92;;;15.60;97.20;;;;;;1707547;29;20203;-76
2022/10/12 08:23:39;;;;;;;25.07;22.00;;;15.60;97.20;;;;;;1707468;29;20207;-76
2022/10/12 08:24:29;;;;;;;29.27;22.08;;;15.60;97.20;;;;;;1707085;29;20203;-76
2022/10/12 08:25:21;;;;;;;24.13;21.40;;;15.60;97.20;;;;;;1707478;29;20198;-76
2022/10/12 08:26:14;;;;;;;23.60;20.95;;;15.60;97.20;;;;;;1705788;29;20210;-76
2022/10/12 08:27:06;;;;;;;26.58;23.27;;;15.60;97.20;;;;;;1703299;28;20640;-76
2022/10/12 08:27:58;;;;;;;24.85;21.83;;;15.60;97.20;;;;;;1701021;29;20204;-76
2022/10/12 08:28:49;;;;;;;27.55;22.20;;;15.60;97.20;;;;;;1707405;29;20207;-76
2022/10/12 08:29:40;;;;;;;26.43;22.70;;;15.60;97.20;;;;;;1707206;29;20195;-76
2022/10/12 08:30:32;;;;;;;24.90;22.27;;;15.60;97.20;;;;;;1707237;29;20199;-76
2022/10/12 08:31:23;;;;;;;24.95;21.27;;;15.60;97.20;;;;;;1707440;29;20211;-76
2022/10/12 08:32:14;;;;;;;28.25;22.05;;;15.60;97.20;;;;;;1707389;29;20211;-76
2022/10/12 08:33:06;;;;;;;27.07;22.03;;;15.60;97.20;;;;;;1706375;29;20220;-76
2022/10/12 08:33:57;;;;;;;25.15;22.45;;;15.60;97.20;;;;;;1701576;29;20226;-78
2022/10/12 08:34:49;;;;;;;25.33;20.80;;;15.60;97.20;;;;;;1700998;29;20207;-76
2022/10/12 08:35:40;;;;;;;27.55;21.80;;;15.60;97.20;;;;;;1700849;29;20447;-76
2022/10/12 08:36:32;;;;;;;26.40;21.45;;;15.60;97.20;;;;;;1700754;29;20199;-76
2022/10/12 08:37:24;;;;;;;24.77;21.23;;;15.50;97.20;;;;;;1700908;29;20218;-77
2022/10/12 08:38:16;;;;;;;26.75;21.48;;;15.50;97.20;;;;;;1707135;29;20605;-77
2022/10/12 08:39:07;;;;;;;23.50;21.00;;;15.50;97.20;;;;;;1707468;29;20283;-77
2022/10/12 08:39:59;;;;;;;23.80;20.30;;;15.50;97.20;;;;;;1707255;29;20305;-78
2022/10/12 08:40:54;;;;;;;24.60;21.35;;;15.50;97.20;;;;;;1707189;29;20462;-78
2022/10/12 08:41:57;;;;;;;24.70;20.92;;;15.50;97.20;;;;;;1707438;29;20637;-77
2022/10/12 08:42:56;;;;;;;23.25;20.23;;;15.50;97.20;;;;;;1706770;29;20202;-77
2022/10/12 08:44:17;;;;;;;24.63;20.85;;;15.50;97.20;;;;;;1707165;29;20213;-76
2022/10/12 08:45:26;;;;;;;26.83;21.38;;;15.50;97.20;;;;;;1705395;28;20211;-76
2022/10/12 08:46:19;;;;;;;22.77;19.92;;;15.50;97.20;;;;;;1700719;29;20214;-76
2022/10/12 08:47:15;;;;;;;21.98;19.45;;;15.50;97.20;;;;;;1700849;29;20211;-76
2022/10/12 08:48:12;;;;;;;23.15;19.67;;;15.50;97.20;;;;;;1700844;29;20586;-76
2022/10/12 08:49:08;;;;;;;23.83;20.48;;;15.50;97.20;;;;;;1700809;29;20218;-77
2022/10/12 08:50:00;;;;;;;23.13;19.35;;;15.60;97.20;;;;;;1700547;29;20693;-77
2022/10/12 08:50:55;;;;;;;23.38;20.27;;;15.60;97.20;;;;;;1700567;29;20246;-76
2022/10/12 08:51:49;;;;;;;24.38;19.63;;;15.60;97.20;;;;;;1700814;29;20199;-76
2022/10/12 08:52:49;;;;;;;27.08;19.90;;;15.60;97.20;;;;;;1700800;29;20203;-76
2022/10/12 08:53:46;;;;;;;24.00;20.60;;;15.60;97.20;;;;;;1702604;29;20207;-76
2022/10/12 08:54:43;;;;;;;23.58;20.80;;;15.60;97.20;;;;;;1707502;29;20198;-76
2022/10/12 08:55:38;;;;;;;23.05;20.08;;;15.60;97.20;;;;;;1707290;29;20203;-77
2022/10/12 08:56:31;;;;;;;23.70;19.85;;;15.60;97.20;;;;;;1707417;29;20572;-77
2022/10/12 08:57:21;;;;;;;28.30;20.90;;;15.60;97.20;;;;;;1706935;29;20206;-77
2022/10/12 08:58:16;;;;;;;24.37;20.30;;;15.70;97.20;;;;;;1704210;29;20210;-77
2022/10/12 08:59:11;;;;;;;26.88;20.73;;;15.70;97.20;;;;;;1700710;29;20226;-77
2022/10/12 09:00:04;;;;;;;25.05;20.38;;;15.70;97.20;;;;;;1705851;29;20234;-77
2022/10/12 09:01:13;;;;;;;24.00;21.33;;;15.70;97.20;;;;;;1707246;29;20226;-77
2022/10/12 09:02:17;;;;;;;26.73;22.40;;;15.70;97.20;;;;;;1700930;29;20213;-77
2022/10/12 09:03:18;;;;;;;27.50;21.02;;;15.70;97.20;;;;;;1700784;29;20266;-77
2022/10/12 09:04:21;;;;;;;26.05;22.38;;;15.70;97.20;;;;;;1700834;29;20238;-77
2022/10/12 09:05:19;;;;;;;25.23;22.48;;;15.80;97.20;;;;;;1706303;28;20269;-77
2022/10/12 09:06:17;;;;;;;26.33;23.48;;;15.80;97.20;;;;;;1704686;29;20206;-77
2022/10/12 09:07:14;;;;;;;24.27;21.67;;;15.80;97.20;;;;;;1707460;29;20727;-77
2022/10/12 09:08:13;;;;;;;25.75;21.63;;;15.80;97.20;;;;;;1707580;29;20210;-77
2022/10/12 09:09:16;;;;;;;25.55;22.25;;;15.80;97.20;;;;;;1707677;28;20221;-77
2022/10/12 09:10:22;;;;;;;24.70;22.08;;;15.90;97.20;;;;;;1707401;29;20215;-77
2022/10/12 09:11:28;;;;;;;25.73;22.38;;;15.90;97.20;;;;;;1707631;29;20621;-77
2022/10/12 09:12:39;;;;;;;26.27;23.30;;;15.90;97.20;;;;;;1705775;29;20241;-77
2022/10/12 09:13:40;;;;;;;24.67;22.15;;;15.90;97.20;;;;;;1701982;29;20199;-77
2022/10/12 09:14:33;;;;;;;24.42;21.20;;;15.90;97.20;;;;;;1707694;29;20233;-77
2022/10/12 09:15:28;;;;;;;26.25;21.95;;;15.90;97.20;;;;;;1704880;29;20217;-77
2022/10/12 09:16:23;;;;;;;25.00;22.30;;;15.90;97.20;;;;;;1701116;29;20203;-77
2022/10/12 09:17:25;;;;;;;25.35;21.73;;;15.90;97.20;;;;;;1700843;29;20211;-77
2022/10/12 09:18:20;;;;;;;26.90;23.23;;;15.90;97.20;;;;;;1701081;29;20212;-77
2022/10/12 09:19:16;;;;;;;23.77;21.40;;;15.90;97.20;;;;;;1701104;29;20214;-77
2022/10/12 09:20:18;;;;;;;22.67;20.38;;;15.90;97.20;;;;;;1700701;29;20227;-77
2022/10/12 09:21:15;;;;;;;24.30;21.48;;;15.90;97.20;;;;;;1700980;29;20211;-77
2022/10/12 09:22:17;;;;;;;29.85;21.70;;;15.90;97.20;;;;;;1701357;29;20270;-77
2022/10/12 09:23:25;;;;;;;24.08;20.67;;;15.90;97.20;;;;;;1701222;29;20203;-77
2022/10/12 09:24:21;;;;;;;25.17;20.30;;;15.90;97.20;;;;;;1700801;29;20215;-77
2022/10/12 09:25:14;;;;;;;25.00;18.25;;;16.00;97.20;;;;;;1700827;29;20231;-78
2022/10/12 09:26:13;;;;;;;24.55;17.55;;;16.00;97.20;;;;;;1700803;29;20271;-77
2022/10/12 09:27:21;;;;;;;23.75;16.92;;;16.00;97.20;;;;;;1700881;29;20240;-77
2022/10/12 09:28:17;;;;;;;23.55;17.00;;;16.00;97.20;;;;;;1702708;29;20204;-78